This is the latest recevied weather packets stored in our database for station/object SQ4IXR-4. If no packets are shown the sender has not sent any weather packets the latest 10 day(s).
| Time | Temp. | Humidity | Pressure | Rain* | Wind** | Luminosity | Snow |
|---|---|---|---|---|---|---|---|
| 1788613678 | 22.78° C | 40% | 1012.4 hPa | - | - | - | - |
| 1788612863 | 25.56° C | 34% | 1012.1 hPa | - | - | - | - |
| 1788612052 | 32.78° C | 25% | 1011.5 hPa | - | - | - | - |
| 1788611224 | 33.33° C | 24% | 1011.7 hPa | - | - | - | - |
| 1788610389 | 27.22° C | 35% | 1012 hPa | - | - | - | - |
| 1788609562 | 26.11° C | 41% | 1012 hPa | - | - | - | - |
| 1788608733 | 24.44° C | 47% | 1012.4 hPa | - | - | - | - |
| 1788607907 | 20° C | 58% | 1012.4 hPa | - | - | - | - |
| 1788607089 | 24.44° C | 40% | 1011.9 hPa | - | - | - | - |
| 1788606265 | 24.44° C | 40% | 1011.9 hPa | - | - | - | - |
| 1788605441 | 25° C | 38% | 1011.6 hPa | - | - | - | - |
| 1788604616 | 23.89° C | 40% | 1011.7 hPa | - | - | - | - |
| 1788603787 | 23.33° C | 44% | 1011.5 hPa | - | - | - | - |
| 1788602964 | 23.89° C | 43% | 1011.7 hPa | - | - | - | - |
| 1788602133 | 21.11° C | 51% | 1011.9 hPa | - | - | - | - |
| 1788601311 | 20.56° C | 51% | 1012 hPa | - | - | - | - |
| 1788600492 | 22.22° C | 46% | 1011.8 hPa | - | - | - | - |
| 1788599666 | 23.33° C | 46% | 1011.5 hPa | - | - | - | - |
| 1788598841 | 23.33° C | 46% | 1011.3 hPa | - | - | - | - |
| 1788598021 | 22.78° C | 46% | 1011.2 hPa | - | - | - | - |
| 1788597192 | 22.78° C | 48% | 1011 hPa | - | - | - | - |
| 1788596366 | 20.56° C | 52% | 1011.1 hPa | - | - | - | - |
| 1788595557 | 23.33° C | 43% | 1010.8 hPa | - | - | - | - |
| 1788594739 | 32.22° C | 29% | 1009.9 hPa | - | - | - | - |
| 1788593916 | 34.44° C | 25% | 1009.5 hPa | - | - | - | - |
* Rain since midnight (hover to see other rain measurements)
** Current wind speed in m/s (hover to see current wind gust speed)